createdAt,value
2023-04-12T00:00:20.893Z,11.16
2023-04-12T00:02:49.834Z,10.50
2023-04-12T00:05:16.531Z,10.61
2023-04-12T00:07:46.759Z,11.06
2023-04-12T00:10:13.353Z,11.44
2023-04-12T00:12:40.973Z,11.75
2023-04-12T00:15:08.697Z,12.01
2023-04-12T00:17:35.346Z,12.21
2023-04-12T00:20:05.565Z,12.37
2023-04-12T00:22:32.086Z,12.48
2023-04-12T00:24:58.623Z,11.92
2023-04-12T00:27:25.842Z,11.27
2023-04-12T00:29:52.374Z,10.87
2023-04-12T00:32:18.998Z,11.16
2023-04-12T00:34:46.239Z,11.62
2023-04-12T00:37:12.775Z,11.94
2023-04-12T00:39:39.413Z,12.13
2023-04-12T00:42:06.495Z,12.28
2023-04-12T00:44:35.310Z,12.44
2023-04-12T00:47:04.899Z,12.59
2023-04-12T00:49:32.966Z,12.69
2023-04-12T00:52:04.513Z,12.76
2023-04-12T00:54:32.408Z,12.69
2023-04-12T00:57:00.574Z,11.99
2023-04-12T00:59:27.291Z,11.24
2023-04-12T01:01:57.811Z,10.78
2023-04-12T01:04:26.352Z,11.07
2023-04-12T01:07:10.107Z,11.44
2023-04-12T01:10:08.378Z,11.73
2023-04-12T01:12:37.965Z,11.88
2023-04-12T01:15:13.089Z,11.91
2023-04-12T01:17:49.059Z,11.87
2023-04-12T01:20:21.709Z,11.88
2023-04-12T01:23:14.726Z,11.96
2023-04-12T01:26:00.278Z,11.96
2023-04-12T01:28:38.229Z,12.03
2023-04-12T01:31:07.288Z,12.12
2023-04-12T01:33:36.999Z,12.19
2023-04-12T01:36:12.174Z,12.26
2023-04-12T01:38:41.737Z,12.28
2023-04-12T01:41:08.562Z,12.31
2023-04-12T01:43:41.353Z,12.32
2023-04-12T01:46:07.988Z,12.28
2023-04-12T01:48:35.033Z,12.22
2023-04-12T01:51:09.317Z,12.20
2023-04-12T01:53:35.898Z,12.22
2023-04-12T01:56:08.166Z,12.27
2023-04-12T01:58:36.179Z,12.37
2023-04-12T02:01:04.100Z,12.38
2023-04-12T02:03:31.676Z,12.37
2023-04-12T02:05:59.684Z,12.39
2023-04-12T02:08:27.010Z,12.41
2023-04-12T02:10:54.872Z,12.47
2023-04-12T02:13:21.582Z,12.50
2023-04-12T02:19:03.988Z,12.45
2023-04-12T02:21:42.938Z,12.52
2023-04-12T02:24:11.319Z,12.56
2023-04-12T02:26:38.903Z,12.59
2023-04-12T02:29:09.098Z,12.60
2023-04-12T02:31:38.892Z,12.62
2023-04-12T02:34:07.377Z,12.61
2023-04-12T02:36:37.785Z,12.66
2023-04-12T02:39:05.200Z,12.66
2023-04-12T02:41:33.897Z,12.63
2023-04-12T02:44:00.518Z,12.67
2023-04-12T02:46:27.510Z,12.64
2023-04-12T02:48:58.326Z,12.69
2023-04-12T02:51:32.232Z,12.70
2023-04-12T02:53:59.286Z,12.68
2023-04-12T02:56:29.975Z,12.64
2023-04-12T02:59:01.747Z,12.59
2023-04-12T03:01:46.517Z,12.56
2023-04-12T03:04:22.769Z,12.57
2023-04-12T03:06:53.881Z,12.68
2023-04-12T03:09:27.120Z,12.71
2023-04-12T03:11:54.777Z,12.78
2023-04-12T03:14:21.726Z,12.83
2023-04-12T03:16:49.227Z,12.86
2023-04-12T03:19:17.474Z,12.89
2023-04-12T03:21:49.341Z,12.89
2023-04-12T03:24:16.131Z,12.90
2023-04-12T03:26:43.924Z,12.95
2023-04-12T03:29:16.275Z,12.95
2023-04-12T03:31:43.377Z,12.90
2023-04-12T03:34:10.477Z,12.87
2023-04-12T03:36:39.854Z,12.82
2023-04-12T03:39:17.139Z,12.80
2023-04-12T03:41:44.697Z,12.85
2023-04-12T03:44:11.445Z,12.90
2023-04-12T03:46:38.562Z,12.93
2023-04-12T03:49:07.742Z,12.94
2023-04-12T03:51:35.099Z,12.98
2023-04-12T03:54:04.437Z,13.05
2023-04-12T03:56:39.618Z,13.13
2023-04-12T03:59:10.302Z,13.21
2023-04-12T04:01:37.439Z,13.29
2023-04-12T04:04:05.333Z,13.36
2023-04-12T04:06:32.096Z,13.41
2023-04-12T04:08:59.821Z,13.41
2023-04-12T04:11:27.777Z,13.42
2023-04-12T04:14:04.023Z,13.47
2023-04-12T04:16:31.253Z,13.51
2023-04-12T04:18:58.295Z,13.52
2023-04-12T04:21:24.998Z,13.52
2023-04-12T04:23:55.570Z,13.56
2023-04-12T04:26:33.578Z,13.60
2023-04-12T04:29:11.903Z,13.66
2023-04-12T04:31:39.394Z,13.75
2023-04-12T04:34:07.195Z,13.83
2023-04-12T04:36:37.857Z,13.89
2023-04-12T04:39:05.549Z,13.86
2023-04-12T04:41:39.795Z,13.99
2023-04-12T04:44:13.391Z,14.20
2023-04-12T04:46:48.761Z,14.50
2023-04-12T04:49:15.463Z,14.61
2023-04-12T04:51:42.208Z,13.91
2023-04-12T04:54:09.457Z,13.08
2023-04-12T04:56:38.625Z,12.66
2023-04-12T04:59:05.608Z,13.05
2023-04-12T05:01:36.529Z,13.60
2023-04-12T05:04:04.193Z,13.96
2023-04-12T05:06:31.794Z,14.10
2023-04-12T05:09:00.577Z,14.11
2023-04-12T05:11:27.599Z,14.16
2023-04-12T05:13:54.275Z,14.22
2023-04-12T05:16:21.016Z,14.25
2023-04-12T05:26:12.213Z,14.57
2023-04-12T05:28:39.857Z,13.97
2023-04-12T05:31:08.574Z,13.28
2023-04-12T05:33:37.496Z,12.95
2023-04-12T05:36:04.867Z,13.56
2023-04-12T05:38:31.801Z,14.27
2023-04-12T05:41:04.714Z,14.80
2023-04-12T05:43:33.037Z,14.99
2023-04-12T05:45:59.758Z,14.31
2023-04-12T05:48:26.526Z,13.57
2023-04-12T05:50:55.270Z,12.98
2023-04-12T05:53:22.548Z,12.75
2023-04-12T05:55:49.877Z,13.32
2023-04-12T05:58:17.134Z,13.90
2023-04-12T06:00:44.055Z,14.29
2023-04-12T06:03:11.814Z,14.70
2023-04-12T06:05:39.500Z,14.84
2023-04-12T06:08:06.491Z,14.25
2023-04-12T06:10:33.514Z,13.66
2023-04-12T06:13:00.503Z,13.22
2023-04-12T06:15:27.418Z,12.89
2023-04-12T06:17:54.846Z,12.83
2023-04-12T06:20:21.615Z,13.61
2023-04-12T06:22:48.412Z,14.40
2023-04-12T06:25:17.360Z,14.79
2023-04-12T06:27:46.070Z,14.36
2023-04-12T06:30:14.973Z,13.82
2023-04-12T06:32:42.370Z,13.44
2023-04-12T06:35:09.124Z,13.14
2023-04-12T06:37:36.104Z,12.97
2023-04-12T06:40:03.240Z,13.49
2023-04-12T06:42:29.849Z,14.15
2023-04-12T06:44:56.364Z,14.52
2023-04-12T06:47:25.310Z,14.16
2023-04-12T06:49:54.870Z,13.76
2023-04-12T06:52:25.520Z,13.52
2023-04-12T06:54:52.680Z,13.45
2023-04-12T06:57:19.256Z,13.54
2023-04-12T06:59:45.857Z,13.63
2023-04-12T07:02:12.424Z,14.15
2023-04-12T07:04:39.025Z,15.27
2023-04-12T07:07:06.465Z,15.47
2023-04-12T07:09:33.513Z,15.22
2023-04-12T07:12:01.024Z,14.91
2023-04-12T07:14:27.774Z,14.66
2023-04-12T07:16:54.697Z,14.38
2023-04-12T07:19:21.408Z,14.31
2023-04-12T07:21:48.022Z,14.33
2023-04-12T07:24:14.619Z,14.29
2023-04-12T07:26:41.242Z,14.39
2023-04-12T07:29:07.806Z,14.52
2023-04-12T07:31:34.757Z,14.70
2023-04-12T07:34:01.448Z,15.11
2023-04-12T07:36:28.212Z,15.48
2023-04-12T07:38:57.920Z,15.70
2023-04-12T07:41:24.837Z,15.79
2023-04-12T07:43:51.610Z,15.83
2023-04-12T07:46:18.406Z,16.01
2023-04-12T07:48:45.333Z,16.23
2023-04-12T07:51:12.658Z,16.69
2023-04-12T07:53:41.987Z,17.10
2023-04-12T07:56:08.911Z,17.41
2023-04-12T07:58:35.544Z,17.45
2023-04-12T08:01:02.206Z,17.18
2023-04-12T08:03:29.336Z,16.90
2023-04-12T08:05:56.058Z,16.67
2023-04-12T08:08:23.127Z,16.30
2023-04-12T08:10:51.582Z,15.85
2023-04-12T08:13:18.979Z,15.47
2023-04-12T08:15:47.768Z,15.22
2023-04-12T08:18:15.256Z,15.02
2023-04-12T08:20:44.140Z,14.87
2023-04-12T08:23:12.167Z,14.79
2023-04-12T08:25:39.672Z,14.64
2023-04-12T08:28:09.538Z,14.49
2023-04-12T08:30:36.847Z,14.33
2023-04-12T08:33:03.689Z,14.19
2023-04-12T08:35:30.538Z,14.14
2023-04-12T08:37:57.227Z,14.35
2023-04-12T08:40:24.579Z,15.07
2023-04-12T08:42:52.911Z,15.14
2023-04-12T08:45:23.752Z,15.06
2023-04-12T08:47:50.624Z,15.08
2023-04-12T08:50:18.592Z,15.23
2023-04-12T08:52:47.896Z,15.41
2023-04-12T08:55:14.734Z,15.62
2023-04-12T08:57:42.435Z,15.86
2023-04-12T09:00:10.350Z,16.15
2023-04-12T09:02:38.663Z,16.29
2023-04-12T09:05:07.112Z,16.57
2023-04-12T09:07:34.275Z,17.44
2023-04-12T09:10:01.453Z,18.89
2023-04-12T09:12:28.485Z,20.46
2023-04-12T09:15:13.679Z,22.67
2023-04-12T09:17:42.110Z,24.92
2023-04-12T09:20:29.408Z,26.51
2023-04-12T09:22:56.283Z,27.31
2023-04-12T09:25:38.596Z,27.18
2023-04-12T09:28:21.754Z,27.11
2023-04-12T09:30:51.701Z,27.55
2023-04-12T09:33:23.542Z,27.94
2023-04-12T09:35:50.340Z,27.83
2023-04-12T09:38:17.282Z,27.86
2023-04-12T09:40:45.558Z,27.59
2023-04-12T09:43:12.529Z,26.84
2023-04-12T09:45:39.419Z,26.72
2023-04-12T09:48:07.210Z,26.64
2023-04-12T09:50:34.539Z,26.39
2023-04-12T09:53:03.685Z,26.41
2023-04-12T09:55:32.513Z,26.57
2023-04-12T09:58:03.164Z,26.71
2023-04-12T10:00:34.333Z,27.08
2023-04-12T10:03:02.121Z,27.02
2023-04-12T10:05:29.553Z,26.83
2023-04-12T10:07:58.179Z,26.42
2023-04-12T10:10:28.834Z,25.95
2023-04-12T10:12:56.553Z,25.38
2023-04-12T10:15:25.720Z,24.92
2023-04-12T10:17:58.118Z,24.23
2023-04-12T10:20:28.964Z,23.37
2023-04-12T10:22:59.756Z,22.61
2023-04-12T10:25:31.118Z,21.82
2023-04-12T10:28:13.101Z,21.03
2023-04-12T10:30:40.007Z,20.46
2023-04-12T10:33:08.414Z,20.67
2023-04-12T10:35:57.782Z,22.18
2023-04-12T10:38:27.068Z,24.11
2023-04-12T10:41:24.357Z,25.12
2023-04-12T10:43:52.067Z,26.32
2023-04-12T10:46:39.559Z,27.25
2023-04-12T10:49:17.335Z,28.13
2023-04-12T10:52:01.197Z,28.01
2023-04-12T10:54:36.806Z,27.43
2023-04-12T10:57:05.446Z,27.33
2023-04-12T10:59:56.902Z,27.19
2023-04-12T11:02:24.259Z,26.28
2023-04-12T11:05:11.337Z,25.22
2023-04-12T11:08:00.959Z,23.95
2023-04-12T11:10:41.825Z,23.07
2023-04-12T11:13:18.168Z,22.33
2023-04-12T11:15:45.696Z,21.88
2023-04-12T11:18:12.712Z,22.44
2023-04-12T11:20:40.942Z,23.43
2023-04-12T11:23:10.595Z,24.25
2023-04-12T11:25:38.755Z,25.14
2023-04-12T11:28:14.091Z,25.30
2023-04-12T11:30:56.213Z,24.25
2023-04-12T11:33:37.032Z,23.18
2023-04-12T11:36:09.613Z,22.23
2023-04-12T11:38:38.152Z,21.57
2023-04-12T11:41:07.098Z,21.17
2023-04-12T11:43:35.776Z,21.10
2023-04-12T11:46:03.492Z,21.59
2023-04-12T11:48:30.861Z,22.38
2023-04-12T11:51:10.282Z,23.23
2023-04-12T11:53:39.068Z,24.02
2023-04-12T11:56:06.416Z,24.90
2023-04-12T11:58:33.685Z,25.79
2023-04-12T12:01:00.871Z,26.65
2023-04-12T12:03:28.943Z,27.69
2023-04-12T12:05:56.680Z,28.72
2023-04-12T12:08:24.519Z,29.08
2023-04-12T12:11:04.001Z,28.43
2023-04-12T12:13:53.201Z,27.97
2023-04-12T12:16:29.475Z,27.71
2023-04-12T12:18:57.890Z,28.28
2023-04-12T12:21:27.399Z,28.80
2023-04-12T12:23:57.103Z,28.93
2023-04-12T12:26:26.252Z,28.87
2023-04-12T12:28:55.687Z,28.87
2023-04-12T12:31:24.788Z,28.62
2023-04-12T12:33:57.233Z,27.84
2023-04-12T12:36:34.598Z,27.07
2023-04-12T12:39:07.502Z,26.89
2023-04-12T12:41:34.705Z,27.23
2023-04-12T12:44:01.611Z,27.73
2023-04-12T12:46:40.703Z,28.09
2023-04-12T12:49:15.681Z,28.03
2023-04-12T12:51:43.015Z,27.86
2023-04-12T12:54:10.089Z,27.68
2023-04-12T12:56:37.131Z,27.46
2023-04-12T12:59:03.987Z,27.52
2023-04-12T13:01:31.152Z,27.78
2023-04-12T13:03:59.340Z,28.16
2023-04-12T13:06:27.288Z,28.42
2023-04-12T13:08:55.394Z,28.28
2023-04-12T13:11:22.384Z,27.46
2023-04-12T13:13:49.293Z,26.41
2023-04-12T13:16:16.322Z,25.51
2023-04-12T13:18:43.894Z,24.72
2023-04-12T13:21:11.606Z,23.89
2023-04-12T13:23:38.491Z,23.16
2023-04-12T13:26:06.395Z,22.53
2023-04-12T13:28:33.658Z,22.13
2023-04-12T13:31:01.873Z,22.04
2023-04-12T13:33:28.766Z,21.92
2023-04-12T13:35:55.737Z,22.02
2023-04-12T13:38:22.570Z,22.17
2023-04-12T13:40:49.453Z,21.96
2023-04-12T13:43:16.810Z,21.63
2023-04-12T13:45:44.662Z,21.52
2023-04-12T13:48:11.551Z,21.80
2023-04-12T13:50:38.880Z,22.29
2023-04-12T13:53:05.927Z,22.72
2023-04-12T13:55:32.871Z,22.91
2023-04-12T13:57:59.819Z,22.98
2023-04-12T14:00:27.417Z,23.04
2023-04-12T14:02:54.576Z,23.14
2023-04-12T14:05:21.614Z,23.16
2023-04-12T14:07:50.091Z,23.11
2023-04-12T14:10:16.953Z,22.95
2023-04-12T14:12:43.715Z,22.72
2023-04-12T14:15:10.825Z,22.51
2023-04-12T14:17:37.904Z,22.35
2023-04-12T14:20:08.787Z,22.35
2023-04-12T14:22:35.478Z,22.57
2023-04-12T14:25:02.406Z,22.68
2023-04-12T14:27:29.369Z,22.58
2023-04-12T14:29:56.850Z,22.50
2023-04-12T14:32:24.009Z,22.34
2023-04-12T14:34:50.938Z,22.11
2023-04-12T14:37:17.915Z,21.98
2023-04-12T14:39:44.838Z,21.95
2023-04-12T14:42:12.092Z,21.86
2023-04-12T14:44:39.068Z,21.65
2023-04-12T14:47:06.197Z,21.47
2023-04-12T14:49:33.524Z,21.11
2023-04-12T14:52:01.681Z,20.66
2023-04-12T14:54:28.600Z,20.38
2023-04-12T14:56:56.222Z,20.33
2023-04-12T14:59:23.636Z,20.38
2023-04-12T15:01:52.824Z,20.43
2023-04-12T15:04:20.317Z,20.47
2023-04-12T15:06:47.281Z,20.40
2023-04-12T15:09:17.981Z,20.26
2023-04-12T15:11:49.282Z,20.09
2023-04-12T15:14:20.850Z,19.83
2023-04-12T15:16:49.361Z,19.49
2023-04-12T15:19:20.895Z,19.16
2023-04-12T15:21:51.556Z,18.86
2023-04-12T15:24:19.072Z,18.67
2023-04-12T15:26:49.597Z,18.57
2023-04-12T15:29:17.220Z,18.44
2023-04-12T15:31:44.468Z,18.30
2023-04-12T15:34:14.590Z,18.15
2023-04-12T15:36:43.374Z,17.97
2023-04-12T15:39:11.400Z,17.85
2023-04-12T15:41:39.981Z,17.76
2023-04-12T15:44:08.583Z,17.69
2023-04-12T15:46:36.436Z,17.62
2023-04-12T15:49:03.264Z,17.59
2023-04-12T15:51:30.343Z,17.57
2023-04-12T15:53:57.530Z,17.56
2023-04-12T15:56:25.429Z,17.51
2023-04-12T15:58:53.931Z,17.44
2023-04-12T16:01:20.935Z,17.42
2023-04-12T16:03:48.941Z,17.41
2023-04-12T16:06:20.293Z,17.38
2023-04-12T16:08:52.049Z,17.33
2023-04-12T16:11:21.193Z,17.24
2023-04-12T16:13:49.866Z,17.17
2023-04-12T16:16:18.596Z,17.08
2023-04-12T16:18:46.658Z,16.96
2023-04-12T16:21:16.752Z,16.77
2023-04-12T16:23:44.631Z,16.52
2023-04-12T16:26:14.347Z,16.26
2023-04-12T16:28:43.267Z,16.02
2023-04-12T16:31:10.584Z,15.85
2023-04-12T16:33:37.784Z,15.67
2023-04-12T16:36:05.298Z,15.51
2023-04-12T16:38:35.048Z,15.39
2023-04-12T16:41:02.613Z,15.27
2023-04-12T16:43:29.459Z,15.15
2023-04-12T16:45:56.948Z,15.03
2023-04-12T16:48:23.758Z,14.91
2023-04-12T16:50:50.634Z,14.77
2023-04-12T16:53:17.778Z,14.64
2023-04-12T16:55:48.099Z,14.51
2023-04-12T16:58:15.973Z,14.40
2023-04-12T17:00:43.321Z,14.27
2023-04-12T17:03:12.798Z,14.14
2023-04-12T17:05:42.584Z,14.02
2023-04-12T17:08:10.007Z,13.93
2023-04-12T17:10:37.439Z,13.84
2023-04-12T17:13:05.040Z,13.77
2023-04-12T17:15:32.005Z,13.73
2023-04-12T17:18:02.065Z,13.71
2023-04-12T17:20:29.493Z,13.67
2023-04-12T17:22:58.046Z,13.62
2023-04-12T17:25:27.338Z,13.58
2023-04-12T17:27:54.177Z,13.54
2023-04-12T17:30:21.202Z,13.48
2023-04-12T17:32:48.818Z,13.41
2023-04-12T17:35:17.443Z,13.36
2023-04-12T17:37:44.594Z,13.33
2023-04-12T17:40:12.757Z,13.30
2023-04-12T17:42:41.550Z,13.31
2023-04-12T17:45:12.542Z,13.28
2023-04-12T17:47:40.697Z,13.27
2023-04-12T17:50:09.579Z,13.24
2023-04-12T17:52:37.340Z,13.18
2023-04-12T17:55:05.508Z,13.16
2023-04-12T17:57:32.972Z,13.72
2023-04-12T17:59:59.813Z,14.50
2023-04-12T18:02:27.777Z,14.30
2023-04-12T18:04:55.414Z,13.86
2023-04-12T18:07:23.173Z,13.49
2023-04-12T18:09:51.394Z,13.21
2023-04-12T18:12:18.473Z,13.00
2023-04-12T18:14:45.542Z,13.06
2023-04-12T18:17:12.481Z,13.83
2023-04-12T18:19:39.324Z,14.36
2023-04-12T18:22:06.382Z,14.18
2023-04-12T18:24:33.262Z,13.72
2023-04-12T18:27:01.674Z,13.32
2023-04-12T18:29:28.436Z,13.12
2023-04-12T18:31:55.546Z,13.63
2023-04-12T18:34:22.940Z,14.31
2023-04-12T18:36:50.000Z,14.53
2023-04-12T18:39:16.857Z,14.02
2023-04-12T18:41:43.514Z,13.49
2023-04-12T18:44:11.945Z,13.13
2023-04-12T18:46:42.037Z,12.87
2023-04-12T18:49:11.949Z,12.81
2023-04-12T18:51:38.794Z,13.44
2023-04-12T18:54:08.497Z,14.13
2023-04-12T18:56:35.578Z,14.66
2023-04-12T18:59:03.936Z,14.98
2023-04-12T19:01:30.875Z,14.65
2023-04-12T19:04:00.023Z,14.18
2023-04-12T19:06:27.270Z,13.84
2023-04-12T19:08:54.137Z,13.57
2023-04-12T19:11:21.412Z,13.35
2023-04-12T19:13:50.980Z,13.12
2023-04-12T19:16:18.235Z,13.08
2023-04-12T19:18:45.290Z,13.61
2023-04-12T19:21:12.232Z,14.17
2023-04-12T19:23:39.044Z,14.58
2023-04-12T19:26:06.642Z,14.33
2023-04-12T19:28:33.450Z,13.73
2023-04-12T19:31:03.835Z,13.24
2023-04-12T19:33:30.680Z,12.88
2023-04-12T19:35:57.746Z,12.78
2023-04-12T19:38:28.195Z,13.34
2023-04-12T19:40:56.218Z,13.95
2023-04-12T19:43:23.726Z,14.39
2023-04-12T19:45:50.956Z,14.74
2023-04-12T19:48:18.604Z,14.87
2023-04-12T19:50:49.115Z,14.38
2023-04-12T19:53:21.485Z,13.81
2023-04-12T19:55:48.090Z,13.38
2023-04-12T19:58:15.559Z,13.20
2023-04-12T20:00:42.270Z,13.69
2023-04-12T20:03:09.559Z,14.24
2023-04-12T20:05:36.786Z,14.63
2023-04-12T20:08:03.866Z,14.76
2023-04-12T20:10:30.741Z,14.24
2023-04-12T20:12:57.470Z,13.62
2023-04-12T20:15:24.706Z,13.08
2023-04-12T20:17:52.256Z,12.82
2023-04-12T20:20:19.570Z,13.20
2023-04-12T20:22:47.867Z,13.62
2023-04-12T20:25:15.300Z,13.88
2023-04-12T20:27:42.521Z,14.07
2023-04-12T20:30:11.352Z,14.15
2023-04-12T20:32:38.799Z,14.14
2023-04-12T20:35:06.759Z,14.14
2023-04-12T20:37:34.106Z,14.09
2023-04-12T20:40:01.480Z,14.01
2023-04-12T20:42:28.504Z,14.01
2023-04-12T20:44:57.628Z,13.97
2023-04-12T20:47:24.928Z,13.93
2023-04-12T20:49:52.455Z,13.90
2023-04-12T20:52:19.805Z,13.89
2023-04-12T20:54:48.368Z,13.92
2023-04-12T20:57:20.117Z,13.91
2023-04-12T20:59:47.344Z,13.84
2023-04-12T21:02:16.750Z,13.78
2023-04-12T21:04:45.495Z,13.76
2023-04-12T21:07:12.974Z,13.77
2023-04-12T21:09:40.075Z,13.76
2023-04-12T21:12:08.894Z,13.77
2023-04-12T21:14:37.990Z,13.78
2023-04-12T21:17:05.903Z,13.78
2023-04-12T21:19:39.134Z,13.76
2023-04-12T21:22:07.179Z,13.70
2023-04-12T21:24:40.690Z,13.66
2023-04-12T21:27:08.557Z,13.60
2023-04-12T21:29:41.370Z,13.53
2023-04-12T21:32:09.432Z,13.45
2023-04-12T21:34:39.303Z,13.38
2023-04-12T21:37:06.168Z,13.33
2023-04-12T21:39:33.351Z,13.20
2023-04-12T21:41:59.970Z,12.51
2023-04-12T21:44:27.000Z,11.72
2023-04-12T21:46:53.922Z,11.22
2023-04-12T21:49:20.963Z,11.45
2023-04-12T21:51:49.352Z,11.80
2023-04-12T21:54:16.571Z,12.04
2023-04-12T21:56:43.407Z,12.21
2023-04-12T21:59:10.124Z,12.32
2023-04-12T22:01:37.501Z,12.35
2023-04-12T22:04:04.611Z,12.33
2023-04-12T22:06:31.638Z,12.34
2023-04-12T22:09:02.051Z,12.35
2023-04-12T22:11:30.621Z,12.37
2023-04-12T22:13:57.966Z,12.39
2023-04-12T22:16:24.867Z,12.42
2023-04-12T22:18:53.048Z,12.43
2023-04-12T22:21:19.748Z,12.40
2023-04-12T22:23:46.839Z,12.39
2023-04-12T22:26:13.908Z,12.40
2023-04-12T22:28:42.635Z,12.44
2023-04-12T22:31:16.437Z,12.37
2023-04-12T22:33:43.868Z,12.26
2023-04-12T22:36:10.734Z,12.22
2023-04-12T22:38:38.041Z,12.18
2023-04-12T22:41:05.361Z,12.14
2023-04-12T22:43:37.915Z,12.12
2023-04-12T22:46:05.873Z,12.12
2023-04-12T22:48:32.657Z,12.14
2023-04-12T22:51:03.680Z,12.13
2023-04-12T22:53:33.315Z,12.10
2023-04-12T22:55:59.983Z,12.13
2023-04-12T22:58:27.175Z,12.18
2023-04-12T23:00:54.104Z,12.20
2023-04-12T23:03:21.601Z,12.21
2023-04-12T23:05:50.357Z,12.21
2023-04-12T23:08:20.346Z,12.20
2023-04-12T23:10:47.013Z,12.18
2023-04-12T23:13:13.702Z,12.07
2023-04-12T23:15:43.937Z,12.12
2023-04-12T23:18:10.822Z,12.10
2023-04-12T23:20:38.470Z,12.07
2023-04-12T23:23:05.659Z,12.03
2023-04-12T23:25:41.332Z,12.01
2023-04-12T23:28:13.986Z,11.96
2023-04-12T23:30:51.014Z,11.91
2023-04-12T23:33:20.238Z,11.85
2023-04-12T23:35:56.040Z,11.78
2023-04-12T23:38:24.578Z,11.70
2023-04-12T23:40:54.339Z,11.65
2023-04-12T23:43:21.550Z,11.59
2023-04-12T23:45:48.492Z,11.44
2023-04-12T23:48:16.476Z,11.39
2023-04-12T23:50:45.813Z,11.28
2023-04-12T23:53:13.299Z,11.17
2023-04-12T23:55:42.681Z,11.05
2023-04-12T23:58:09.924Z,11.01
